Time;durP1;ratioP1;P1;durP2;ratioP2;P2;SDS_P1;SDS_P2;PMS_P1;PMS_P2;Temp;Humidity;BMP_temperature;BMP_pressure;BME280_temperature;BME280_humidity;BME280_pressure;Samples;Min_cycle;Max_cycle;Signal;HPM_P1;HPM_P2
2023/04/07 00:02:31;;;;;;;16.15;9.35;;;;;;;0.00;100.00;59042.03;10345473;28;20060;-66
2023/04/07 00:07:31;;;;;;;20.20;10.02;;;;;;;0.00;100.00;59042.03;10346387;28;20424;-66
2023/04/07 00:12:32;;;;;;;18.58;9.30;;;;;;;0.00;100.00;59042.03;10346046;28;20038;-67
2023/04/07 00:17:32;;;;;;;16.30;9.50;;;;;;;0.00;100.00;59042.03;10345312;28;20044;-66
2023/04/07 00:22:33;;;;;;;15.57;9.70;;;;;;;0.00;100.00;59042.03;10373661;28;20029;-66
2023/04/07 00:27:33;;;;;;;14.93;8.60;;;;;;;0.00;100.00;59042.03;10385378;28;20048;-67
2023/04/07 00:32:34;;;;;;;18.60;9.15;;;;;;;0.00;100.00;59042.03;10385240;28;20029;-66
2023/04/07 00:37:35;;;;;;;17.23;9.70;;;;;;;0.00;100.00;59042.03;10385181;28;20098;-68
2023/04/07 00:42:36;;;;;;;19.20;10.30;;;;;;;0.00;100.00;59042.03;10385030;28;20473;-66
2023/04/07 00:47:36;;;;;;;20.48;9.68;;;;;;;0.00;100.00;59042.03;10383413;28;20438;-67
2023/04/07 00:52:37;;;;;;;17.40;9.77;;;;;;;0.00;100.00;59042.03;10385238;28;20045;-66
2023/04/07 00:57:37;;;;;;;12.77;9.57;;;;;;;0.00;100.00;59042.03;10384674;28;20052;-66
2023/04/07 01:02:44;;;;;;;16.63;8.65;;;;;;;0.00;100.00;59042.03;10384350;28;20053;-68
2023/04/07 01:07:56;;;;;;;15.57;8.55;;;;;;;0.00;100.00;59042.03;10384635;28;20039;-68
2023/04/07 01:13:04;;;;;;;20.85;10.73;;;;;;;0.00;100.00;59042.03;10384185;28;20033;-67
2023/04/07 01:18:13;;;;;;;14.80;8.23;;;;;;;0.00;100.00;59042.03;10383273;28;20065;-66
2023/04/07 01:23:24;;;;;;;25.08;10.05;;;;;;;0.00;100.00;59042.03;10383640;28;20483;-67
2023/04/07 01:28:42;;;;;;;14.23;8.13;;;;;;;0.00;100.00;59042.03;10382702;28;20022;-66
2023/04/07 01:33:46;;;;;;;13.77;8.27;;;;;;;0.00;100.00;59042.03;10383522;28;20065;-67
2023/04/07 01:38:50;;;;;;;13.15;7.95;;;;;;;0.00;100.00;59042.03;10355582;28;20029;-67
2023/04/07 01:43:51;;;;;;;14.38;8.35;;;;;;;0.00;100.00;59042.03;10383262;28;20407;-66
2023/04/07 01:48:52;;;;;;;15.10;8.18;;;;;;;0.00;100.00;59042.03;10382518;28;20032;-66
2023/04/07 01:53:53;;;;;;;14.70;9.23;;;;;;;0.00;100.00;59042.03;10381452;28;20532;-66
2023/04/07 01:58:54;;;;;;;21.65;10.25;;;;;;;0.00;100.00;59042.03;10382402;28;20778;-66
2023/04/07 02:04:11;;;;;;;29.45;17.13;;;;;;;0.00;100.00;59042.03;10381886;28;20049;-66
2023/04/07 02:09:15;;;;;;;25.52;15.38;;;;;;;0.00;100.00;59042.03;10381946;28;20037;-66
2023/04/07 02:14:16;;;;;;;27.48;15.23;;;;;;;0.00;100.00;59042.03;10376624;28;20044;-67
2023/04/07 02:19:17;;;;;;;26.48;15.15;;;;;;;0.00;100.00;59042.03;10381030;28;20526;-67
2023/04/07 02:24:21;;;;;;;30.52;15.55;;;;;;;0.00;100.00;59042.03;10382304;28;20523;-67
2023/04/07 02:29:21;;;;;;;33.08;15.85;;;;;;;0.00;100.00;59042.03;10381116;28;20045;-67
2023/04/07 02:34:22;;;;;;;32.08;17.08;;;;;;;0.00;100.00;59042.03;10381160;28;20515;-66
2023/04/07 02:39:22;;;;;;;29.67;14.68;;;;;;;0.00;100.00;59042.03;10348202;28;20029;-67
2023/04/07 02:44:22;;;;;;;29.37;14.07;;;;;;;0.00;100.00;59042.03;10381113;28;20086;-67
2023/04/07 02:49:23;;;;;;;29.00;13.50;;;;;;;0.00;100.00;59042.03;10380214;28;20291;-67
2023/04/07 02:54:23;;;;;;;27.85;14.25;;;;;;;0.00;100.00;59042.03;10380514;28;20286;-67
2023/04/07 02:59:24;;;;;;;30.92;15.55;;;;;;;0.00;100.00;59042.03;10380193;28;20500;-66
2023/04/07 03:04:25;;;;;;;27.65;14.95;;;;;;;0.00;100.00;59042.03;10389803;28;20469;-67
2023/04/07 03:09:25;;;;;;;28.52;15.27;;;;;;;0.00;100.00;59042.03;10394010;28;20136;-67
2023/04/07 03:14:26;;;;;;;32.85;16.05;;;;;;;0.00;100.00;59042.03;10393776;28;20021;-67
2023/04/07 03:19:26;;;;;;;29.33;15.48;;;;;;;0.00;100.00;59042.03;10393627;28;20411;-67
2023/04/07 03:24:26;;;;;;;37.30;15.85;;;;;;;0.00;100.00;59042.03;10393355;28;20456;-68
2023/04/07 03:29:27;;;;;;;28.40;14.88;;;;;;;0.00;100.00;59042.03;10394075;28;20445;-67
2023/04/07 03:34:27;;;;;;;27.58;14.02;;;;;;;0.00;100.00;59042.03;10393389;28;20043;-67
2023/04/07 03:39:28;;;;;;;32.45;15.48;;;;;;;0.00;100.00;59042.03;10392315;28;20041;-68
2023/04/07 03:44:28;;;;;;;31.25;15.48;;;;;;;0.00;100.00;59042.03;10392576;28;20034;-66
2023/04/07 03:49:30;;;;;;;14.10;9.18;;;;;;;0.00;100.00;59042.03;10391879;28;20037;-68
2023/04/07 03:54:30;;;;;;;14.15;8.10;;;;;;;0.00;100.00;59042.03;10366529;28;20061;-67
2023/04/07 03:59:31;;;;;;;14.30;8.82;;;;;;;0.00;100.00;59042.03;10385888;28;20058;-67
2023/04/07 04:04:32;;;;;;;14.10;6.78;;;;;;;0.00;100.00;59042.03;10395714;28;20045;-67
2023/04/07 04:09:32;;;;;;;12.85;8.10;;;;;;;0.00;100.00;59042.03;10378592;28;20453;-67
2023/04/07 04:14:33;;;;;;;14.93;7.55;;;;;;;0.00;100.00;59042.03;10385057;28;20033;-67
2023/04/07 04:19:33;;;;;;;28.63;15.32;;;;;;;0.00;100.00;59042.03;10355891;28;20030;-66
2023/04/07 04:24:34;;;;;;;39.58;17.92;;;;;;;0.00;100.00;59042.03;10379965;28;20468;-67
2023/04/07 04:29:34;;;;;;;39.88;18.52;;;;;;;0.00;100.00;59042.03;10383988;28;20447;-68
2023/04/07 04:34:35;;;;;;;32.00;16.43;;;;;;;0.00;100.00;59042.03;10383687;28;20029;-68
2023/04/07 04:39:35;;;;;;;45.72;20.00;;;;;;;0.00;100.00;59042.03;10383728;28;20346;-67
2023/04/07 04:44:36;;;;;;;31.33;14.93;;;;;;;0.00;100.00;59042.03;10368649;28;20041;-67
2023/04/07 04:49:36;;;;;;;29.35;16.52;;;;;;;0.00;100.00;59042.03;10383985;28;20048;-67
2023/04/07 04:54:36;;;;;;;36.35;16.50;;;;;;;0.00;100.00;59042.03;10384155;28;20080;-66
2023/04/07 04:59:38;;;;;;;32.33;13.55;;;;;;;0.00;100.00;59042.03;10363364;28;20084;-70
2023/04/07 05:04:38;;;;;;;27.52;13.48;;;;;;;0.00;100.00;59042.03;10348628;28;20050;-68
2023/04/07 05:09:39;;;;;;;23.53;13.13;;;;;;;0.00;100.00;59042.03;10338526;28;20805;-68
2023/04/07 05:14:39;;;;;;;21.67;12.43;;;;;;;0.00;100.00;59042.03;10337591;28;20658;-69
2023/04/07 05:19:40;;;;;;;27.60;13.90;;;;;;;0.00;100.00;59042.03;10342070;28;20353;-69
2023/04/07 05:24:40;;;;;;;32.30;14.13;;;;;;;0.00;100.00;59042.03;10380614;28;20376;-69
2023/04/07 05:29:41;;;;;;;25.52;14.70;;;;;;;0.00;100.00;59042.03;10380888;28;20444;-68
2023/04/07 05:34:41;;;;;;;28.40;15.33;;;;;;;0.00;100.00;59042.03;10344632;28;20040;-68
2023/04/07 05:39:41;;;;;;;34.10;15.05;;;;;;;0.00;100.00;59042.03;10378197;28;20694;-67
2023/04/07 05:44:42;;;;;;;24.15;12.93;;;;;;;0.00;100.00;59042.03;10382711;28;20443;-68
2023/04/07 05:49:44;;;;;;;22.03;11.27;;;;;;;0.00;100.00;59042.03;10382311;28;20033;-68
2023/04/07 05:54:45;;;;;;;21.45;10.80;;;;;;;0.00;100.00;59042.03;10359847;28;20376;-68
2023/04/07 05:59:45;;;;;;;20.63;11.20;;;;;;;0.00;100.00;59042.03;10341015;28;20473;-68
2023/04/07 06:04:46;;;;;;;21.73;10.18;;;;;;;0.00;100.00;59042.03;10368854;28;20220;-68
2023/04/07 06:09:46;;;;;;;19.60;10.02;;;;;;;0.00;100.00;59042.03;10363925;28;20033;-68
2023/04/07 06:14:53;;;;;;;24.23;10.60;;;;;;;0.00;100.00;59042.03;10381923;28;20697;-68
2023/04/07 06:19:55;;;;;;;16.60;10.05;;;;;;;0.00;100.00;59042.03;10379196;28;20084;-68
2023/04/07 06:24:55;;;;;;;24.73;10.68;;;;;;;0.00;100.00;59042.03;10357106;28;20145;-68
2023/04/07 06:29:56;;;;;;;24.27;10.57;;;;;;;0.00;100.00;59042.03;10341435;28;20045;-67
2023/04/07 06:34:56;;;;;;;24.90;10.88;;;;;;;0.00;100.00;59042.03;10374096;28;20033;-68
2023/04/07 06:39:57;;;;;;;14.50;9.30;;;;;;;0.00;100.00;59042.03;10379655;28;20048;-68
2023/04/07 06:44:57;;;;;;;25.70;9.77;;;;;;;0.00;100.00;59042.03;10380789;28;20025;-67
2023/04/07 06:49:58;;;;;;;15.57;9.00;;;;;;;0.00;100.00;59042.03;10380787;28;20330;-68
2023/04/07 06:54:58;;;;;;;26.20;10.20;;;;;;;0.00;100.00;59042.03;10349977;28;20273;-68
2023/04/07 06:59:58;;;;;;;27.40;9.15;;;;;;;0.00;100.00;59042.03;10346177;28;20029;-68
2023/04/07 07:05:00;;;;;;;20.08;9.77;;;;;;;0.00;100.00;59042.03;10380866;28;20104;-66
2023/04/07 07:10:00;;;;;;;24.00;10.48;;;;;;;0.00;100.00;59042.03;10380616;28;20449;-67
2023/04/07 07:15:01;;;;;;;19.25;8.60;;;;;;;0.00;100.00;59042.03;10380651;28;20112;-68
2023/04/07 07:20:01;;;;;;;21.05;10.40;;;;;;;0.00;100.00;59042.03;10379562;28;20022;-67
2023/04/07 07:25:02;;;;;;;20.80;9.13;;;;;;;0.00;100.00;59042.03;10349918;28;20026;-68
2023/04/07 07:30:03;;;;;;;18.80;10.23;;;;;;;0.00;100.00;59042.03;10353797;28;20033;-67
2023/04/07 07:35:03;;;;;;;20.02;9.75;;;;;;;0.00;100.00;59042.03;10380145;28;20032;-66
2023/04/07 07:40:05;;;;;;;21.70;5.95;;;;;;;0.00;100.00;59042.03;10369184;28;20026;-67
2023/04/07 07:45:06;;;;;;;16.02;5.95;;;;;;;0.00;100.00;59042.03;10376529;28;20852;-67
2023/04/07 07:50:06;;;;;;;8.98;5.38;;;;;;;0.00;100.00;59042.03;10382892;28;20033;-68
2023/04/07 07:55:07;;;;;;;10.05;5.20;;;;;;;0.00;100.00;59042.03;10387193;28;20522;-68
2023/04/07 08:00:08;;;;;;;7.57;4.95;;;;;;;0.00;100.00;59042.03;10386946;28;20029;-68
2023/04/07 08:05:08;;;;;;;8.70;5.25;;;;;;;0.00;100.00;59042.03;10386912;28;20505;-68
2023/04/07 08:10:09;;;;;;;8.35;4.45;;;;;;;0.00;100.00;59042.03;10387048;28;20560;-67
2023/04/07 08:15:10;;;;;;;10.82;5.20;;;;;;;0.00;100.00;59042.03;10386544;28;20793;-68
2023/04/07 08:20:10;;;;;;;11.02;5.03;;;;;;;0.00;100.00;59042.03;10386007;28;20427;-67
2023/04/07 08:25:11;;;;;;;9.10;5.05;;;;;;;0.00;100.00;59042.03;10385899;28;20075;-68
2023/04/07 08:30:12;;;;;;;8.85;4.80;;;;;;;0.00;100.00;59042.03;10386463;28;20772;-68
2023/04/07 08:35:12;;;;;;;10.10;5.53;;;;;;;0.00;100.00;59042.03;10385337;28;20036;-68
2023/04/07 08:40:13;;;;;;;9.07;6.00;;;;;;;0.00;100.00;59042.03;10386006;28;20033;-68
2023/04/07 08:45:16;;;;;;;8.57;5.17;;;;;;;0.00;100.00;59042.03;10384116;28;20032;-68
2023/04/07 08:50:18;;;;;;;8.95;5.13;;;;;;;0.00;100.00;59042.03;10384726;28;20342;-68
2023/04/07 08:55:18;;;;;;;10.85;5.25;;;;;;;0.00;100.00;59042.03;10383219;28;20071;-69
2023/04/07 09:00:19;;;;;;;8.30;4.18;;;;;;;0.00;100.00;59042.03;10384128;28;20032;-68
2023/04/07 09:05:20;;;;;;;10.30;5.45;;;;;;;0.00;100.00;59042.03;10383406;28;20111;-69
2023/04/07 09:10:21;;;;;;;8.68;3.88;;;;;;;0.00;100.00;59042.03;10382837;28;20025;-69
2023/04/07 09:15:21;;;;;;;9.68;5.40;;;;;;;0.00;100.00;59042.03;10384356;28;20033;-68
2023/04/07 09:20:22;;;;;;;7.65;4.63;;;;;;;0.00;100.00;59042.03;10383277;28;20026;-68
2023/04/07 09:25:26;;;;;;;7.95;4.68;;;;;;;0.00;100.00;59042.03;10384486;28;20025;-68
2023/04/07 09:30:28;;;;;;;8.23;5.03;;;;;;;0.00;100.00;59042.03;10383666;28;20416;-69
2023/04/07 09:35:28;;;;;;;15.10;5.40;;;;;;;0.00;100.00;59042.03;10383467;28;20100;-67
2023/04/07 09:40:29;;;;;;;14.07;5.47;;;;;;;0.00;100.00;59042.03;10383220;28;20040;-67
2023/04/07 09:45:31;;;;;;;9.68;5.57;;;;;;;0.00;100.00;59042.03;10382690;28;20866;-68
2023/04/07 09:50:40;;;;;;;12.23;6.47;;;;;;;0.00;100.00;59042.03;10381387;28;20446;-69
2023/04/07 09:55:41;;;;;;;14.02;6.45;;;;;;;0.00;100.00;59042.03;10364407;28;20084;-67
2023/04/07 10:00:42;;;;;;;10.38;6.78;;;;;;;0.00;100.00;59042.03;10349825;28;20064;-68
2023/04/07 10:05:43;;;;;;;17.52;7.07;;;;;;;0.00;100.00;59042.03;10382240;28;20437;-69
2023/04/07 10:10:44;;;;;;;11.27;6.97;;;;;;;0.00;100.00;59042.03;10381010;28;20028;-67
2023/04/07 10:15:45;;;;;;;9.48;5.28;;;;;;;0.00;100.00;59042.03;10381645;28;20037;-68
2023/04/07 10:20:48;;;;;;;9.30;4.97;;;;;;;0.00;100.00;59042.03;10380864;28;20018;-67
2023/04/07 10:25:51;;;;;;;10.50;6.03;;;;;;;0.00;100.00;59042.03;10383942;28;20086;-68
2023/04/07 10:30:52;;;;;;;12.85;6.40;;;;;;;0.00;100.00;59042.03;10380461;28;20074;-68
2023/04/07 10:36:13;;;;;;;9.73;5.50;;;;;;;0.00;100.00;59042.03;10381022;28;20112;-67
2023/04/07 10:41:40;;;;;;;9.73;5.40;;;;;;;0.00;100.00;59042.03;10380128;28;20115;-68
2023/04/07 10:46:50;;;;;;;11.27;6.72;;;;;;;0.00;100.00;59042.03;10380374;28;20470;-70
2023/04/07 10:52:11;;;;;;;13.25;6.68;;;;;;;0.00;100.00;59042.03;10380996;28;20029;-68
2023/04/07 10:57:15;;;;;;;14.35;7.60;;;;;;;0.00;100.00;59042.03;10365586;28;20131;-68
2023/04/07 11:02:16;;;;;;;12.63;6.07;;;;;;;0.00;100.00;59042.03;10379054;28;20133;-68
2023/04/07 11:07:18;;;;;;;13.50;6.72;;;;;;;0.00;100.00;59042.03;10379995;28;20502;-69
2023/04/07 11:12:23;;;;;;;11.68;7.38;;;;;;;0.00;100.00;59042.03;10379645;28;20025;-68
2023/04/07 11:17:23;;;;;;;15.25;6.32;;;;;;;0.00;100.00;59042.03;10379693;28;20496;-68
2023/04/07 11:22:24;;;;;;;19.77;9.00;;;;;;;0.00;100.00;59042.03;10380727;28;20176;-68
2023/04/07 11:27:25;;;;;;;13.33;6.80;;;;;;;0.00;100.00;59042.03;10388114;28;20086;-67
2023/04/07 11:32:28;;;;;;;12.02;6.82;;;;;;;0.00;100.00;59042.03;10387838;28;20334;-68
2023/04/07 11:37:29;;;;;;;16.60;6.93;;;;;;;0.00;100.00;59042.03;10380113;28;20471;-68
2023/04/07 11:42:38;;;;;;;12.88;7.57;;;;;;;0.00;100.00;59042.03;10368476;28;20119;-68
2023/04/07 11:47:39;;;;;;;15.45;7.15;;;;;;;0.00;100.00;59042.03;10373364;28;20033;-69
2023/04/07 11:52:44;;;;;;;11.07;6.55;;;;;;;0.00;100.00;59042.03;10387079;28;20117;-68
2023/04/07 11:57:44;;;;;;;18.63;7.78;;;;;;;0.00;100.00;59042.03;10387029;28;20095;-67
2023/04/07 12:02:45;;;;;;;16.63;8.00;;;;;;;0.00;100.00;59042.03;10377838;28;20510;-67
2023/04/07 12:07:53;;;;;;;11.20;7.72;;;;;;;0.00;100.00;59042.03;10359722;28;20537;-66
2023/04/07 12:12:53;;;;;;;17.88;9.00;;;;;;;0.00;100.00;59042.03;10365240;28;20041;-67
2023/04/07 12:17:54;;;;;;;13.23;8.15;;;;;;;0.00;100.00;59042.03;10373210;28;20030;-67
2023/04/07 12:22:55;;;;;;;12.65;7.60;;;;;;;0.00;100.00;59042.03;10353006;28;20044;-68
2023/04/07 12:27:55;;;;;;;12.85;8.88;;;;;;;0.00;100.00;59042.03;10358436;28;20061;-69
2023/04/07 12:32:55;;;;;;;14.55;8.73;;;;;;;0.00;100.00;59042.03;10358467;28;20761;-68
2023/04/07 12:37:57;;;;;;;11.70;7.40;;;;;;;0.00;100.00;59042.03;10358289;28;20035;-67
2023/04/07 12:42:57;;;;;;;13.43;7.65;;;;;;;0.00;100.00;59042.03;10362285;28;20479;-69
2023/04/07 12:47:58;;;;;;;15.17;7.13;;;;;;;0.00;100.00;59042.03;10363014;28;20691;-68
2023/04/07 12:53:02;;;;;;;14.75;7.75;;;;;;;0.00;100.00;59042.03;10358700;28;20089;-68
2023/04/07 12:58:03;;;;;;;17.95;9.02;;;;;;;0.00;100.00;59042.03;10364239;28;20387;-67
2023/04/07 13:03:03;;;;;;;16.88;8.27;;;;;;;0.00;100.00;59042.03;10359912;28;20054;-67
2023/04/07 13:08:04;;;;;;;17.13;8.47;;;;;;;0.00;100.00;59042.03;10357726;28;20038;-67
2023/04/07 13:13:05;;;;;;;14.50;8.15;;;;;;;0.00;100.00;59042.03;10357971;28;20350;-68
2023/04/07 13:18:05;;;;;;;21.52;8.80;;;;;;;0.00;100.00;59042.03;10358546;28;20548;-68
2023/04/07 13:23:06;;;;;;;20.30;8.85;;;;;;;0.00;100.00;59042.03;10350954;28;20471;-69
2023/04/07 13:28:06;;;;;;;13.73;8.20;;;;;;;0.00;100.00;59042.03;10354875;28;20032;-71
2023/04/07 13:33:06;;;;;;;14.50;8.13;;;;;;;0.00;100.00;59042.03;10348440;28;20281;-71
2023/04/07 13:38:08;;;;;;;13.05;8.85;;;;;;;0.00;100.00;59042.03;10359112;28;20798;-70
2023/04/07 13:43:10;;;;;;;15.88;9.27;;;;;;;0.00;100.00;59042.03;10360433;28;20096;-70
2023/04/07 13:48:10;;;;;;;12.25;8.23;;;;;;;0.00;100.00;59042.03;10361821;28;20064;-69
2023/04/07 13:53:11;;;;;;;14.83;8.87;;;;;;;0.00;100.00;59042.03;10355525;28;20029;-70
2023/04/07 13:58:12;;;;;;;16.88;9.10;;;;;;;0.00;100.00;59042.03;10360813;28;20284;-70
2023/04/07 14:03:12;;;;;;;17.05;9.60;;;;;;;0.00;100.00;59042.03;10354854;28;20038;-69
2023/04/07 14:08:13;;;;;;;14.68;7.93;;;;;;;0.00;100.00;59042.03;10351897;28;20089;-69
2023/04/07 14:13:13;;;;;;;21.10;10.57;;;;;;;0.00;100.00;59042.03;10353432;28;20362;-70
2023/04/07 14:18:13;;;;;;;16.58;8.00;;;;;;;0.00;100.00;59042.03;10344723;28;20465;-71
2023/04/07 14:23:14;;;;;;;15.90;9.93;;;;;;;0.00;100.00;59042.03;10366264;28;20087;-70
2023/04/07 14:28:14;;;;;;;17.67;9.27;;;;;;;0.00;100.00;59042.03;10358261;28;20543;-70
2023/04/07 14:33:16;;;;;;;13.07;8.83;;;;;;;0.00;100.00;59042.03;10360643;28;20439;-71
2023/04/07 14:38:16;;;;;;;16.35;9.70;;;;;;;0.00;100.00;59042.03;10353089;28;20818;-69
2023/04/07 14:43:17;;;;;;;24.95;9.80;;;;;;;0.00;100.00;59042.03;10358959;28;20042;-71
2023/04/07 14:48:17;;;;;;;11.95;8.60;;;;;;;0.00;100.00;59042.03;10354874;28;20029;-71
2023/04/07 14:53:18;;;;;;;17.03;8.80;;;;;;;0.00;100.00;59042.03;10360122;28;20404;-70
2023/04/07 14:58:18;;;;;;;19.08;9.80;;;;;;;0.00;100.00;59042.03;10353462;28;20632;-70
2023/04/07 15:03:19;;;;;;;14.00;8.82;;;;;;;0.00;100.00;59042.03;10357838;28;20049;-70
2023/04/07 15:08:19;;;;;;;19.85;10.45;;;;;;;0.00;100.00;59042.03;10352395;28;20052;-70
2023/04/07 15:13:20;;;;;;;22.45;10.50;;;;;;;0.00;100.00;59042.03;10361923;28;20029;-71
2023/04/07 15:18:20;;;;;;;18.95;10.80;;;;;;;0.00;100.00;59042.03;10356582;28;20048;-71
2023/04/07 15:23:21;;;;;;;16.33;10.27;;;;;;;0.00;100.00;59042.03;10357387;28;20083;-71
2023/04/07 15:28:22;;;;;;;18.15;9.68;;;;;;;0.00;100.00;59042.03;10362570;28;20284;-70
2023/04/07 15:33:23;;;;;;;18.83;10.77;;;;;;;0.00;100.00;59042.03;10358645;28;20030;-70
2023/04/07 15:38:23;;;;;;;20.17;10.60;;;;;;;0.00;100.00;59042.03;10363732;28;20070;-69
2023/04/07 15:43:26;;;;;;;25.13;12.45;;;;;;;0.00;100.00;59042.03;10353239;28;20107;-70
2023/04/07 15:48:26;;;;;;;17.75;9.88;;;;;;;0.00;100.00;59042.03;10357559;28;20052;-71
2023/04/07 15:53:28;;;;;;;19.40;9.63;;;;;;;0.00;100.00;59042.03;10351710;28;20040;-69
2023/04/07 15:58:30;;;;;;;18.98;11.13;;;;;;;0.00;100.00;59042.03;10350815;28;20289;-71
2023/04/07 16:03:30;;;;;;;21.20;10.68;;;;;;;0.00;100.00;59042.03;10354867;28;20054;-70
2023/04/07 16:08:31;;;;;;;25.67;11.52;;;;;;;0.00;100.00;59042.03;10353289;28;20044;-71
2023/04/07 16:13:31;;;;;;;18.27;10.15;;;;;;;0.00;100.00;59042.03;10366765;28;20045;-70
2023/04/07 16:18:32;;;;;;;21.73;11.73;;;;;;;0.00;100.00;59042.03;10360628;28;20146;-70
2023/04/07 16:23:32;;;;;;;21.37;11.57;;;;;;;0.00;100.00;59042.03;10355830;28;20025;-70
2023/04/07 16:28:33;;;;;;;16.25;10.45;;;;;;;0.00;100.00;59042.03;10359580;28;20631;-71
2023/04/07 16:33:35;;;;;;;21.30;11.60;;;;;;;0.00;100.00;59042.03;10351832;28;20045;-76
2023/04/07 16:38:35;;;;;;;19.73;11.27;;;;;;;0.00;100.00;59042.03;10370937;28;20491;-68
2023/04/07 16:43:35;;;;;;;19.90;13.10;;;;;;;0.00;100.00;59042.03;10355689;28;20044;-68
2023/04/07 16:48:36;;;;;;;19.65;11.63;;;;;;;0.00;100.00;59042.03;10364349;28;20276;-69
2023/04/07 16:53:36;;;;;;;25.80;13.32;;;;;;;0.00;100.00;59042.03;10352634;28;20103;-69
2023/04/07 16:58:37;;;;;;;21.65;12.50;;;;;;;0.00;100.00;59042.03;10351900;28;20611;-69
2023/04/07 17:03:38;;;;;;;17.77;10.90;;;;;;;0.00;100.00;59042.03;10354883;28;20428;-67
2023/04/07 17:08:38;;;;;;;19.65;11.25;;;;;;;0.00;100.00;59042.03;10361200;28;20037;-68
2023/04/07 17:13:39;;;;;;;29.58;12.25;;;;;;;0.00;100.00;59042.03;10361679;28;20451;-68
2023/04/07 17:18:40;;;;;;;21.20;13.00;;;;;;;0.00;100.00;59042.03;10359850;28;20044;-70
2023/04/07 17:23:40;;;;;;;22.45;11.43;;;;;;;0.00;100.00;59042.03;10354918;28;20498;-70
2023/04/07 17:28:41;;;;;;;20.02;11.52;;;;;;;0.00;100.00;59042.03;10363872;28;20443;-73
2023/04/07 17:33:41;;;;;;;21.35;13.02;;;;;;;0.00;100.00;59042.03;10363996;28;20419;-72
2023/04/07 17:38:43;;;;;;;18.88;11.10;;;;;;;0.00;100.00;59042.03;10357872;28;20056;-73
2023/04/07 17:43:43;;;;;;;24.50;12.35;;;;;;;0.00;100.00;59042.03;10347961;28;20077;-73
2023/04/07 17:48:44;;;;;;;20.98;12.38;;;;;;;0.00;100.00;59042.03;10354508;28;20034;-73
2023/04/07 17:53:45;;;;;;;22.95;11.60;;;;;;;0.00;100.00;59042.03;10362601;28;20747;-73
2023/04/07 17:58:46;;;;;;;24.60;12.13;;;;;;;0.00;100.00;59042.03;10357916;28;20512;-73
2023/04/07 18:03:47;;;;;;;24.52;11.55;;;;;;;0.00;100.00;59042.03;10357857;28;20124;-74
2023/04/07 18:08:48;;;;;;;19.15;11.30;;;;;;;0.00;100.00;59042.03;10345731;28;20026;-74
2023/04/07 18:13:48;;;;;;;18.50;12.23;;;;;;;0.00;100.00;59042.03;10387194;28;20040;-73
2023/04/07 18:18:49;;;;;;;24.05;11.85;;;;;;;0.00;100.00;59042.03;10371010;28;20029;-74
2023/04/07 18:23:49;;;;;;;22.02;11.88;;;;;;;0.00;100.00;59042.03;10362663;28;20105;-75
2023/04/07 18:28:50;;;;;;;21.47;12.23;;;;;;;0.00;100.00;59042.03;10372658;28;20041;-71
2023/04/07 18:33:50;;;;;;;20.33;11.43;;;;;;;0.00;100.00;59042.03;10374489;28;20651;-73
2023/04/07 18:38:50;;;;;;;25.58;13.05;;;;;;;0.00;100.00;59042.03;10379294;28;20061;-73
2023/04/07 18:43:51;;;;;;;27.00;15.15;;;;;;;0.00;100.00;59042.03;10362306;28;20107;-73
2023/04/07 18:48:52;;;;;;;30.70;16.45;;;;;;;0.00;100.00;59042.03;10371269;28;20025;-73
2023/04/07 18:53:53;;;;;;;29.42;16.30;;;;;;;0.00;100.00;59042.03;10383021;28;20523;-73
2023/04/07 18:58:53;;;;;;;34.45;17.50;;;;;;;0.00;100.00;59042.03;10358147;28;20041;-73
2023/04/07 19:03:56;;;;;;;30.98;16.15;;;;;;;0.00;100.00;59042.03;10380004;28;20424;-71
2023/04/07 19:08:57;;;;;;;32.67;17.00;;;;;;;0.00;100.00;59042.03;10381842;28;20026;-77
2023/04/07 19:13:58;;;;;;;33.75;19.35;;;;;;;0.00;100.00;59042.03;10396161;28;20021;-79
2023/04/07 19:18:59;;;;;;;22.05;14.80;;;;;;;0.00;100.00;59042.03;10390318;28;20407;-80
2023/04/07 19:23:59;;;;;;;26.38;15.93;;;;;;;0.00;100.00;59042.03;10391254;28;20032;-84
2023/04/07 19:29:02;;;;;;;31.55;14.93;;;;;;;0.00;100.00;59042.03;10396651;28;20044;-77
2023/04/07 19:34:02;;;;;;;32.80;17.30;;;;;;;0.00;100.00;59042.03;10384147;28;20431;-78
2023/04/07 19:39:04;;;;;;;34.05;18.50;;;;;;;0.00;100.00;59042.03;10395259;28;20021;-75
2023/04/07 19:44:04;;;;;;;29.02;17.10;;;;;;;0.00;100.00;59042.03;10393835;28;20025;-79
2023/04/07 19:49:08;;;;;;;29.92;16.23;;;;;;;0.00;100.00;59042.03;10403330;28;20464;-81
2023/04/07 19:54:08;;;;;;;30.58;16.17;;;;;;;0.00;100.00;59042.03;10400988;28;20029;-75
2023/04/07 19:59:09;;;;;;;23.67;14.60;;;;;;;0.00;100.00;59042.03;10405570;28;20542;-83
2023/04/07 20:04:09;;;;;;;22.98;14.48;;;;;;;0.00;100.00;59042.03;10393303;28;20033;-79
2023/04/07 20:09:10;;;;;;;24.88;12.38;;;;;;;0.00;100.00;59042.03;10399479;28;20514;-80
2023/04/07 20:14:10;;;;;;;24.55;14.20;;;;;;;0.00;100.00;59042.03;10403064;28;20016;-78
2023/04/07 20:19:10;;;;;;;30.98;16.02;;;;;;;0.00;100.00;59042.03;10400434;28;20080;-71
2023/04/07 20:24:12;;;;;;;28.30;15.13;;;;;;;0.00;100.00;59042.03;10380383;28;20036;-72
2023/04/07 20:29:12;;;;;;;23.75;13.00;;;;;;;0.00;100.00;59042.03;10378033;28;20763;-73
2023/04/07 20:34:12;;;;;;;27.45;14.85;;;;;;;0.00;100.00;59042.03;10382485;28;20029;-71
2023/04/07 20:39:13;;;;;;;24.95;14.18;;;;;;;0.00;100.00;59042.03;10378720;28;20087;-71
2023/04/07 20:44:14;;;;;;;20.75;12.48;;;;;;;0.00;100.00;59042.03;10363796;28;20017;-72
2023/04/07 20:49:14;;;;;;;31.20;14.15;;;;;;;0.00;100.00;59042.03;10364792;28;20488;-72
2023/04/07 20:54:15;;;;;;;23.52;13.95;;;;;;;0.00;100.00;59042.03;10371384;28;20433;-71
2023/04/07 20:59:16;;;;;;;27.60;14.85;;;;;;;0.00;100.00;59042.03;10375959;28;20095;-71
2023/04/07 21:04:16;;;;;;;22.88;13.80;;;;;;;0.00;100.00;59042.03;10373346;28;20056;-71
2023/04/07 21:09:16;;;;;;;24.38;14.57;;;;;;;0.00;100.00;59042.03;10377891;28;20025;-71
2023/04/07 21:14:17;;;;;;;24.00;13.65;;;;;;;0.00;100.00;59042.03;10378509;28;20025;-71
2023/04/07 21:19:17;;;;;;;26.55;13.80;;;;;;;0.00;100.00;59042.03;10368228;28;20452;-71
2023/04/07 21:24:19;;;;;;;26.53;13.43;;;;;;;0.00;100.00;59042.03;10383648;28;20095;-71
2023/04/07 21:29:20;;;;;;;22.85;12.60;;;;;;;0.00;100.00;59042.03;10383221;28;20292;-72
2023/04/07 21:34:20;;;;;;;22.60;13.50;;;;;;;0.00;100.00;59042.03;10382600;28;20103;-71
2023/04/07 21:39:21;;;;;;;26.07;13.60;;;;;;;0.00;100.00;59042.03;10381114;28;20080;-72
2023/04/07 21:44:22;;;;;;;23.48;13.25;;;;;;;0.00;100.00;59042.03;10382704;28;20025;-71
2023/04/07 21:49:24;;;;;;;23.70;14.20;;;;;;;0.00;100.00;59042.03;10381886;28;20026;-72
2023/04/07 21:54:24;;;;;;;24.38;13.88;;;;;;;0.00;100.00;59042.03;10380715;28;20457;-72
2023/04/07 21:59:26;;;;;;;21.45;12.80;;;;;;;0.00;100.00;59042.03;10382329;28;20079;-72
2023/04/07 22:04:27;;;;;;;25.85;13.95;;;;;;;0.00;100.00;59042.03;10382736;28;20056;-72
2023/04/07 22:09:27;;;;;;;28.98;13.73;;;;;;;0.00;100.00;59042.03;10380199;28;20083;-72
2023/04/07 22:14:28;;;;;;;26.27;14.97;;;;;;;0.00;100.00;59042.03;10381178;28;20040;-71
2023/04/07 22:19:28;;;;;;;24.80;15.02;;;;;;;0.00;100.00;59042.03;10381247;28;20354;-71
2023/04/07 22:24:29;;;;;;;30.75;17.15;;;;;;;0.00;100.00;59042.03;10381546;28;20492;-72
2023/04/07 22:29:30;;;;;;;32.65;17.65;;;;;;;0.00;100.00;59042.03;10381437;28;20042;-71
2023/04/07 22:34:30;;;;;;;35.95;18.10;;;;;;;0.00;100.00;59042.03;10357103;28;20445;-72
2023/04/07 22:39:30;;;;;;;39.50;20.58;;;;;;;0.00;100.00;59042.03;10379585;28;20061;-73
2023/04/07 22:44:31;;;;;;;37.58;19.90;;;;;;;0.00;100.00;59042.03;10380653;28;20029;-73
2023/04/07 22:49:31;;;;;;;36.53;19.77;;;;;;;0.00;100.00;59042.03;10380196;28;20079;-70
2023/04/07 22:54:32;;;;;;;45.63;20.92;;;;;;;0.00;100.00;59042.03;10378396;28;20047;-70
2023/04/07 22:59:33;;;;;;;36.75;19.33;;;;;;;0.00;100.00;59042.03;10358858;28;20365;-71